Time;durP1;ratioP1;P1;durP2;ratioP2;P2;SDS_P1;SDS_P2;PMS_P1;PMS_P2;Temp;Humidity;BMP_temperature;BMP_pressure;BME280_temperature;BME280_humidity;BME280_pressure;Samples;Min_cycle;Max_cycle;Signal;HPM_P1;HPM_P2
2022/08/27 00:00:36;;;;;;;2.75;2.55;;;28.00;46.70;;;;;;5150578;27;45230;-71
2022/08/27 00:03:05;;;;;;;2.40;2.30;;;28.10;46.70;;;;;;5150334;27;45201;-71
2022/08/27 00:05:31;;;;;;;2.70;2.50;;;28.10;46.70;;;;;;5150250;27;45228;-71
2022/08/27 00:07:58;;;;;;;2.20;2.10;;;28.00;46.60;;;;;;5150252;27;45366;-71
2022/08/27 00:10:26;;;;;;;2.33;2.13;;;28.00;46.60;;;;;;5150508;27;45128;-70
2022/08/27 00:12:54;;;;;;;2.22;2.03;;;28.00;46.70;;;;;;5150111;27;47327;-71
2022/08/27 00:15:21;;;;;;;2.38;2.22;;;27.90;46.70;;;;;;5150036;27;45216;-71
2022/08/27 00:17:48;;;;;;;2.33;2.13;;;27.90;46.70;;;;;;5150053;27;45218;-71
2022/08/27 00:20:17;;;;;;;2.28;2.10;;;27.90;46.70;;;;;;5149618;27;45234;-71
2022/08/27 00:22:44;;;;;;;2.45;2.30;;;27.90;46.70;;;;;;5149916;27;45292;-71
2022/08/27 00:25:11;;;;;;;2.30;2.10;;;27.90;46.70;;;;;;5149916;27;45301;-71
2022/08/27 00:27:38;;;;;;;3.33;2.28;;;27.90;46.80;;;;;;5149939;27;45136;-71
2022/08/27 00:30:05;;;;;;;3.20;2.40;;;27.90;46.80;;;;;;5149908;27;45190;-71
2022/08/27 00:32:32;;;;;;;2.28;2.13;;;27.90;46.90;;;;;;5149676;27;46354;-71
2022/08/27 00:34:59;;;;;;;3.50;2.40;;;27.80;46.80;;;;;;5150192;27;45466;-71
2022/08/27 00:37:27;;;;;;;3.22;1.92;;;27.80;46.80;;;;;;5149553;27;45225;-71
2022/08/27 00:39:54;;;;;;;2.38;2.17;;;27.80;46.80;;;;;;5149714;27;45307;-71
2022/08/27 00:42:21;;;;;;;2.55;2.10;;;27.80;46.90;;;;;;5149517;27;45298;-71
2022/08/27 00:44:48;;;;;;;2.85;2.65;;;27.80;46.90;;;;;;5149611;27;45215;-71
2022/08/27 00:47:16;;;;;;;2.50;2.30;;;27.80;46.90;;;;;;5149490;27;45271;-71
2022/08/27 00:49:45;;;;;;;2.47;2.28;;;27.80;46.90;;;;;;5149837;27;45286;-71
2022/08/27 00:52:16;;;;;;;2.30;2.10;;;27.80;46.90;;;;;;5149441;27;45443;-71
2022/08/27 00:54:45;;;;;;;2.22;2.10;;;27.70;46.80;;;;;;5149274;27;45331;-71
2022/08/27 00:57:11;;;;;;;2.30;2.20;;;27.70;46.90;;;;;;5149637;27;45260;-71
2022/08/27 00:59:38;;;;;;;2.20;2.00;;;27.70;46.90;;;;;;5149620;27;45181;-71
2022/08/27 01:02:20;;;;;;;2.47;2.28;;;27.70;47.00;;;;;;5149695;27;45229;-71
2022/08/27 01:04:48;;;;;;;2.10;1.98;;;27.60;47.00;;;;;;5149215;27;45189;-71
2022/08/27 01:07:15;;;;;;;2.50;2.30;;;27.60;47.10;;;;;;5149593;27;45352;-71
2022/08/27 01:09:43;;;;;;;3.70;2.40;;;27.60;47.20;;;;;;5149351;27;45227;-70
2022/08/27 01:12:10;;;;;;;2.20;2.10;;;27.60;47.10;;;;;;5149041;27;45174;-71
2022/08/27 01:14:37;;;;;;;2.10;2.00;;;27.60;47.10;;;;;;5149311;27;45219;-71
2022/08/27 01:17:04;;;;;;;2.17;2.00;;;27.60;47.20;;;;;;5149045;27;45173;-71
2022/08/27 01:19:34;;;;;;;2.35;2.22;;;27.60;47.20;;;;;;5149349;27;45227;-71
2022/08/27 01:22:05;;;;;;;2.30;2.10;;;27.60;47.10;;;;;;5148900;27;46401;-70
2022/08/27 01:24:35;;;;;;;2.20;2.00;;;27.50;47.00;;;;;;5149038;27;45340;-71
2022/08/27 01:27:02;;;;;;;2.58;2.35;;;27.50;47.10;;;;;;5149096;27;45316;-71
2022/08/27 01:29:30;;;;;;;2.15;2.05;;;27.50;47.20;;;;;;5149360;27;45133;-71
2022/08/27 01:31:59;;;;;;;2.38;2.17;;;27.50;47.20;;;;;;5147567;27;46484;-71
2022/08/27 01:34:26;;;;;;;2.28;2.17;;;27.50;47.20;;;;;;5148752;27;45203;-71
2022/08/27 01:36:52;;;;;;;2.33;2.20;;;27.50;47.20;;;;;;5148198;27;45216;-71
2022/08/27 01:39:19;;;;;;;2.53;2.00;;;27.40;47.30;;;;;;5148984;27;45190;-71
2022/08/27 01:41:47;;;;;;;2.53;2.33;;;27.50;47.30;;;;;;5148518;27;46748;-71
2022/08/27 01:44:14;;;;;;;2.10;2.00;;;27.40;47.30;;;;;;5148648;27;45260;-71
2022/08/27 01:46:41;;;;;;;1.92;1.83;;;27.40;47.30;;;;;;5148770;27;45137;-71
2022/08/27 01:49:09;;;;;;;2.17;2.08;;;27.40;47.20;;;;;;5148848;27;45172;-71
2022/08/27 01:51:36;;;;;;;2.63;2.35;;;27.40;47.30;;;;;;5148399;27;46412;-71
2022/08/27 01:54:03;;;;;;;2.50;2.30;;;27.40;47.30;;;;;;5148472;27;45239;-71
2022/08/27 01:56:30;;;;;;;2.75;2.38;;;27.40;47.30;;;;;;5148615;27;45309;-71
2022/08/27 01:58:58;;;;;;;1.83;1.73;;;27.40;47.30;;;;;;5148799;27;45212;-71
2022/08/27 02:01:25;;;;;;;2.38;2.10;;;27.40;47.30;;;;;;5148452;27;46622;-71
2022/08/27 02:03:51;;;;;;;2.45;2.15;;;27.40;47.50;;;;;;5148446;27;44672;-71
2022/08/27 02:06:18;;;;;;;2.45;2.25;;;27.40;47.50;;;;;;5148575;27;45275;-71
2022/08/27 02:08:45;;;;;;;2.33;2.13;;;27.30;47.50;;;;;;5148456;27;45302;-71
2022/08/27 02:11:12;;;;;;;2.53;2.33;;;27.30;47.50;;;;;;5148160;27;45307;-71
2022/08/27 02:13:39;;;;;;;2.38;2.17;;;27.30;47.50;;;;;;5148496;27;45184;-71
2022/08/27 02:16:07;;;;;;;2.60;2.40;;;27.30;47.60;;;;;;5148061;27;45179;-71
2022/08/27 02:18:35;;;;;;;3.00;2.10;;;27.30;47.60;;;;;;5148565;27;45465;-71
2022/08/27 02:21:02;;;;;;;2.35;2.15;;;27.30;47.60;;;;;;5147866;27;46383;-71
2022/08/27 02:23:29;;;;;;;2.05;1.95;;;27.30;47.70;;;;;;5147796;27;45164;-71
2022/08/27 02:25:56;;;;;;;2.83;1.95;;;27.20;47.60;;;;;;5148241;27;45182;-71
2022/08/27 02:28:23;;;;;;;2.10;2.00;;;27.20;47.60;;;;;;5148151;27;45344;-71
2022/08/27 02:30:49;;;;;;;2.38;2.20;;;27.20;47.60;;;;;;5147729;27;46381;-71
2022/08/27 02:33:17;;;;;;;2.63;2.42;;;27.20;47.60;;;;;;5148143;27;45290;-71
2022/08/27 02:35:44;;;;;;;2.10;2.00;;;27.20;47.70;;;;;;5145362;27;45241;-71
2022/08/27 02:38:12;;;;;;;2.20;2.03;;;27.20;48.30;;;;;;5148398;27;45517;-71
2022/08/27 02:40:38;;;;;;;2.30;2.10;;;27.20;47.70;;;;;;5147686;27;46534;-71
2022/08/27 02:43:06;;;;;;;2.00;1.90;;;27.20;47.70;;;;;;5150591;27;45454;-71
2022/08/27 02:45:33;;;;;;;2.28;2.17;;;27.20;47.70;;;;;;5151717;27;45137;-71
2022/08/27 02:48:00;;;;;;;2.40;2.30;;;27.20;48.30;;;;;;5151743;27;45262;-71
2022/08/27 02:50:29;;;;;;;2.33;2.22;;;27.10;47.70;;;;;;5151370;27;45536;-71
2022/08/27 02:52:56;;;;;;;2.20;2.00;;;27.10;47.70;;;;;;5151389;27;45291;-71
2022/08/27 02:55:23;;;;;;;2.33;2.10;;;27.10;47.80;;;;;;5151435;27;45219;-71
2022/08/27 02:57:50;;;;;;;2.42;2.22;;;27.10;47.90;;;;;;5151555;27;45159;-71
2022/08/27 03:00:18;;;;;;;3.22;2.20;;;27.10;47.80;;;;;;5151128;27;46386;-71
2022/08/27 03:02:45;;;;;;;2.90;2.10;;;27.10;47.80;;;;;;5151179;27;45267;-71
2022/08/27 03:05:12;;;;;;;1.95;1.85;;;27.10;47.80;;;;;;5151397;27;45160;-71
2022/08/27 03:07:40;;;;;;;2.42;1.90;;;27.10;47.90;;;;;;5150957;27;45249;-71
2022/08/27 03:10:07;;;;;;;2.50;2.10;;;27.10;47.80;;;;;;5150957;27;45304;-71
2022/08/27 03:12:35;;;;;;;2.42;2.22;;;27.00;47.90;;;;;;5151197;27;45290;-71
2022/08/27 03:15:02;;;;;;;2.05;1.92;;;27.00;47.80;;;;;;5151213;27;45191;-71
2022/08/27 03:20:13;;;;;;;3.45;2.05;;;27.00;47.90;;;;;;5148283;27;45793;-71
2022/08/27 03:22:41;;;;;;;2.00;1.90;;;27.00;47.80;;;;;;5150879;27;45233;-71
2022/08/27 03:25:09;;;;;;;2.13;2.03;;;27.00;47.90;;;;;;5150975;27;45427;-71
2022/08/27 03:27:35;;;;;;;1.90;1.80;;;27.00;47.80;;;;;;5151084;27;45283;-71
2022/08/27 03:30:03;;;;;;;2.00;1.90;;;27.00;48.00;;;;;;5150618;27;46539;-71
2022/08/27 03:32:30;;;;;;;2.00;1.90;;;27.00;48.00;;;;;;5150766;27;45191;-71
2022/08/27 03:34:58;;;;;;;2.05;1.95;;;27.00;47.90;;;;;;5151150;27;45273;-71
2022/08/27 03:37:24;;;;;;;2.03;1.90;;;27.00;47.90;;;;;;5150851;27;45291;-71
2022/08/27 03:39:53;;;;;;;2.10;1.90;;;27.00;48.00;;;;;;5150661;27;46737;-71
2022/08/27 03:42:20;;;;;;;2.70;1.92;;;26.90;48.00;;;;;;5151057;27;45242;-71
2022/08/27 03:44:47;;;;;;;2.15;2.05;;;26.90;47.90;;;;;;5151034;27;45121;-71
2022/08/27 03:47:14;;;;;;;2.30;2.10;;;26.90;47.90;;;;;;5151036;27;45433;-71
2022/08/27 03:49:41;;;;;;;2.03;1.92;;;26.90;48.10;;;;;;5150654;27;46345;-71
2022/08/27 03:52:08;;;;;;;2.00;1.90;;;26.90;48.50;;;;;;5150618;27;45258;-71
2022/08/27 03:54:35;;;;;;;2.17;2.00;;;26.90;48.00;;;;;;5149774;27;45243;-71
2022/08/27 03:57:04;;;;;;;2.13;2.03;;;26.90;48.00;;;;;;5150859;27;45236;-71
2022/08/27 03:59:30;;;;;;;2.22;2.03;;;26.80;48.10;;;;;;5150340;27;45489;-71
2022/08/27 04:01:57;;;;;;;2.08;1.98;;;26.80;48.00;;;;;;5149906;27;45335;-71
2022/08/27 04:04:24;;;;;;;1.90;1.80;;;26.80;48.00;;;;;;5150470;27;45192;-71
2022/08/27 04:06:51;;;;;;;2.13;2.00;;;26.80;48.10;;;;;;5150614;27;45396;-71
2022/08/27 04:09:18;;;;;;;1.80;1.70;;;26.80;48.20;;;;;;5150300;27;45214;-71
2022/08/27 04:11:45;;;;;;;2.47;2.28;;;26.80;48.00;;;;;;5150305;27;45346;-71
2022/08/27 04:14:13;;;;;;;2.35;2.03;;;26.80;48.10;;;;;;5150477;27;45137;-71
2022/08/27 04:16:40;;;;;;;1.95;1.85;;;26.70;48.00;;;;;;5150551;27;45366;-71
2022/08/27 04:19:07;;;;;;;2.45;2.03;;;26.70;48.00;;;;;;5150273;27;47532;-71
2022/08/27 04:21:34;;;;;;;2.15;1.80;;;26.70;48.00;;;;;;5150145;27;45383;-71
2022/08/27 04:24:01;;;;;;;2.05;1.95;;;26.70;48.00;;;;;;5150388;27;45331;-71
2022/08/27 04:26:28;;;;;;;2.50;2.30;;;26.70;48.20;;;;;;5150577;27;45304;-71
2022/08/27 04:28:55;;;;;;;2.42;2.22;;;26.70;48.10;;;;;;5149865;27;46530;-71
2022/08/27 04:31:23;;;;;;;2.10;2.00;;;26.70;48.00;;;;;;5149919;27;45408;-71
2022/08/27 04:33:50;;;;;;;2.50;1.92;;;26.70;48.10;;;;;;5150054;27;45299;-71
2022/08/27 04:36:17;;;;;;;2.30;2.08;;;26.70;48.20;;;;;;5150538;27;45434;-71
2022/08/27 04:38:44;;;;;;;2.20;2.00;;;26.70;48.20;;;;;;5128843;27;45794;-71
2022/08/27 04:41:20;;;;;;;2.03;1.92;;;26.70;48.10;;;;;;5128979;27;45187;-71
2022/08/27 04:43:47;;;;;;;1.98;1.88;;;26.70;48.20;;;;;;5128683;27;45211;-71
2022/08/27 04:46:14;;;;;;;2.40;2.20;;;26.70;48.40;;;;;;5128623;27;45249;-71
2022/08/27 04:48:42;;;;;;;1.98;1.88;;;26.70;48.30;;;;;;5127750;27;45258;-71
2022/08/27 04:51:09;;;;;;;2.35;2.10;;;26.70;48.60;;;;;;5128465;27;44625;-71
2022/08/27 04:53:35;;;;;;;2.20;2.10;;;26.70;48.20;;;;;;5128430;27;45244;-71
2022/08/27 04:56:03;;;;;;;2.35;2.25;;;26.70;48.20;;;;;;5129563;27;45213;-71
2022/08/27 04:58:30;;;;;;;2.00;1.90;;;26.70;48.30;;;;;;5129039;27;45554;-71
2022/08/27 05:01:00;;;;;;;2.00;1.90;;;26.70;48.20;;;;;;5128901;27;45313;-71
2022/08/27 05:03:27;;;;;;;2.10;2.00;;;26.70;48.30;;;;;;5128739;27;45221;-71
2022/08/27 05:05:59;;;;;;;2.20;2.00;;;26.70;48.30;;;;;;5128780;27;45393;-71
2022/08/27 05:08:26;;;;;;;2.10;2.00;;;26.60;48.30;;;;;;5128529;27;45236;-71
2022/08/27 05:10:53;;;;;;;2.53;2.20;;;26.60;48.30;;;;;;5128409;27;45119;-70
2022/08/27 05:13:21;;;;;;;2.03;1.92;;;26.60;48.20;;;;;;5128616;27;45236;-71
2022/08/27 05:15:48;;;;;;;1.90;1.80;;;26.60;48.20;;;;;;5128624;27;45326;-71
2022/08/27 05:18:15;;;;;;;2.25;2.15;;;26.60;48.30;;;;;;5128100;27;45457;-71
2022/08/27 05:20:43;;;;;;;2.10;2.00;;;26.60;48.30;;;;;;5128285;27;45154;-71
2022/08/27 05:23:11;;;;;;;2.30;2.13;;;26.60;48.20;;;;;;5128293;27;45399;-71
2022/08/27 05:25:38;;;;;;;2.15;1.90;;;26.60;48.40;;;;;;5128414;27;45269;-71
2022/08/27 05:28:05;;;;;;;2.58;2.28;;;26.60;48.40;;;;;;5128045;27;46502;-71
2022/08/27 05:30:36;;;;;;;2.17;2.03;;;26.60;48.30;;;;;;5127924;27;45184;-71
2022/08/27 05:33:02;;;;;;;1.88;1.70;;;26.60;48.50;;;;;;5128418;27;45314;-71
2022/08/27 05:35:30;;;;;;;2.17;2.08;;;26.60;48.40;;;;;;5128293;27;45188;-71
2022/08/27 05:37:59;;;;;;;2.00;1.90;;;26.60;48.30;;;;;;5127187;27;46371;-71
2022/08/27 05:40:27;;;;;;;2.00;1.90;;;26.60;48.30;;;;;;5127534;27;45228;-71
2022/08/27 05:42:54;;;;;;;2.05;1.95;;;26.60;48.40;;;;;;5128021;27;45320;-71
2022/08/27 05:45:21;;;;;;;2.05;1.85;;;26.60;48.50;;;;;;5128144;27;45204;-71
2022/08/27 05:47:47;;;;;;;1.83;1.73;;;26.60;48.40;;;;;;5126938;27;46401;-71
2022/08/27 05:50:14;;;;;;;2.50;2.20;;;26.60;48.40;;;;;;5127734;27;45405;-70
2022/08/27 05:52:41;;;;;;;1.85;1.75;;;26.60;48.40;;;;;;5127751;27;45296;-70
2022/08/27 05:55:08;;;;;;;2.05;1.95;;;26.60;48.30;;;;;;5127921;27;45332;-71
2022/08/27 05:57:37;;;;;;;2.30;2.10;;;26.60;48.40;;;;;;5127470;27;47494;-71
2022/08/27 06:02:49;;;;;;;3.85;2.00;;;26.60;48.30;;;;;;5124755;27;45289;-71
2022/08/27 06:05:16;;;;;;;2.00;1.90;;;26.60;48.30;;;;;;5127672;27;45229;-71
2022/08/27 06:07:43;;;;;;;2.20;2.10;;;26.50;48.20;;;;;;5113821;27;45245;-71
2022/08/27 06:10:10;;;;;;;2.33;2.13;;;26.60;48.20;;;;;;5106567;27;45276;-71
2022/08/27 06:12:38;;;;;;;1.83;1.73;;;26.50;48.20;;;;;;5107043;27;45134;-71
2022/08/27 06:15:06;;;;;;;2.20;2.00;;;26.50;48.20;;;;;;5110293;27;45426;-71
2022/08/27 06:17:33;;;;;;;2.08;1.92;;;26.50;48.20;;;;;;5115959;27;46661;-71
2022/08/27 06:20:00;;;;;;;1.95;1.80;;;26.50;48.20;;;;;;5110498;27;45168;-71
2022/08/27 06:22:26;;;;;;;1.92;1.83;;;26.50;48.30;;;;;;5110484;27;45192;-71
2022/08/27 06:24:53;;;;;;;1.88;1.77;;;26.50;48.30;;;;;;5110440;27;45199;-71
2022/08/27 06:27:20;;;;;;;2.42;2.28;;;26.50;48.30;;;;;;5110446;27;45222;-71
2022/08/27 06:29:48;;;;;;;2.20;1.98;;;26.50;48.40;;;;;;5112489;27;45245;-71
2022/08/27 06:32:15;;;;;;;2.17;2.08;;;26.50;48.40;;;;;;5131081;27;45169;-71
2022/08/27 06:34:42;;;;;;;2.30;2.20;;;26.50;48.40;;;;;;5131087;27;45222;-71
2022/08/27 06:37:09;;;;;;;2.65;2.45;;;26.50;48.30;;;;;;5130749;27;47323;-72
2022/08/27 06:39:38;;;;;;;2.22;2.13;;;26.50;48.30;;;;;;5130655;27;45307;-71
2022/08/27 06:42:05;;;;;;;2.42;2.17;;;26.50;48.20;;;;;;5130938;27;45253;-71
2022/08/27 06:44:32;;;;;;;1.98;1.88;;;26.50;48.40;;;;;;5131151;27;45250;-71
2022/08/27 06:47:02;;;;;;;2.28;2.08;;;26.50;48.40;;;;;;5130581;27;46928;-71
2022/08/27 06:49:29;;;;;;;2.00;1.90;;;26.50;48.40;;;;;;5130637;27;45217;-71
2022/08/27 06:51:56;;;;;;;2.10;2.00;;;26.50;48.40;;;;;;5130916;27;45195;-72
2022/08/27 06:54:23;;;;;;;2.10;2.00;;;26.50;48.30;;;;;;5130813;27;45176;-71
2022/08/27 06:56:50;;;;;;;3.05;2.20;;;26.50;48.30;;;;;;5130543;27;47337;-72
2022/08/27 06:59:17;;;;;;;2.45;2.25;;;26.50;48.30;;;;;;5130646;27;45283;-71
2022/08/27 07:01:46;;;;;;;2.60;2.40;;;26.50;48.90;;;;;;5130723;27;45277;-71
2022/08/27 07:04:17;;;;;;;2.10;1.98;;;26.50;48.40;;;;;;5130748;27;45111;-72
2022/08/27 07:06:44;;;;;;;1.90;1.80;;;26.50;48.30;;;;;;5125417;27;46394;-72
2022/08/27 07:09:11;;;;;;;2.40;2.20;;;26.50;48.40;;;;;;5109794;27;45213;-72
2022/08/27 07:11:38;;;;;;;3.08;2.13;;;26.50;48.30;;;;;;5109595;27;45197;-72
2022/08/27 07:14:05;;;;;;;2.40;2.20;;;26.50;48.30;;;;;;5109917;27;45245;-72
2022/08/27 07:16:32;;;;;;;2.13;2.03;;;26.50;48.30;;;;;;5120269;27;46570;-71
2022/08/27 07:19:00;;;;;;;2.47;2.28;;;26.50;48.30;;;;;;5109072;27;45290;-72
2022/08/27 07:21:29;;;;;;;3.63;2.92;;;26.50;48.30;;;;;;5107959;27;45190;-71
2022/08/27 07:23:57;;;;;;;4.05;3.40;;;26.40;48.90;;;;;;5109380;27;45432;-70
2022/08/27 07:26:24;;;;;;;7.85;6.78;;;26.40;49.50;;;;;;5108590;27;46358;-70
2022/08/27 07:28:52;;;;;;;10.25;7.53;;;26.40;52.70;;;;;;5107904;27;45276;-71
2022/08/27 07:31:20;;;;;;;10.60;6.97;;;26.40;54.40;;;;;;5124819;27;45183;-71
2022/08/27 07:33:47;;;;;;;11.10;7.85;;;26.30;54.90;;;;;;5129820;27;45352;-69
2022/08/27 07:36:14;;;;;;;10.57;7.28;;;26.30;55.20;;;;;;5129687;27;45255;-70
2022/08/27 07:38:42;;;;;;;9.07;7.50;;;26.20;55.40;;;;;;5129616;27;45245;-70
2022/08/27 07:41:09;;;;;;;8.35;7.45;;;26.20;55.80;;;;;;5129698;27;45239;-71
2022/08/27 07:46:20;;;;;;;8.32;7.50;;;26.10;56.20;;;;;;5126987;27;45402;-71
2022/08/27 07:48:47;;;;;;;8.82;7.93;;;26.10;56.30;;;;;;5129393;27;45363;-70
2022/08/27 07:51:16;;;;;;;11.43;8.27;;;26.00;56.80;;;;;;5129848;27;45256;-71
2022/08/27 07:53:44;;;;;;;9.35;8.10;;;26.00;57.00;;;;;;5129519;27;45546;-71
2022/08/27 07:56:11;;;;;;;10.23;7.88;;;26.00;57.30;;;;;;5129234;27;45467;-70
2022/08/27 07:58:38;;;;;;;8.60;7.70;;;25.90;57.40;;;;;;5129495;27;45399;-70
2022/08/27 08:01:05;;;;;;;11.25;8.65;;;25.90;57.30;;;;;;5129312;27;45245;-70
2022/08/27 08:03:31;;;;;;;12.30;7.70;;;25.90;58.10;;;;;;5129530;27;45414;-70
2022/08/27 08:06:02;;;;;;;11.23;8.18;;;25.90;58.50;;;;;;5128705;27;45329;-70
2022/08/27 08:08:29;;;;;;;8.48;7.57;;;25.90;57.90;;;;;;5147259;27;45310;-71
2022/08/27 08:10:58;;;;;;;9.32;7.57;;;25.90;58.00;;;;;;5148943;27;45386;-71
2022/08/27 08:13:25;;;;;;;9.32;7.95;;;25.90;58.00;;;;;;5150058;27;45324;-70
2022/08/27 08:15:52;;;;;;;9.88;8.57;;;25.90;58.00;;;;;;5139813;27;47538;-70
2022/08/27 08:18:19;;;;;;;11.77;8.38;;;25.90;58.20;;;;;;5109295;27;45337;-70
2022/08/27 08:20:46;;;;;;;10.57;8.57;;;25.90;58.40;;;;;;5129028;27;45354;-70
2022/08/27 08:23:13;;;;;;;9.55;8.35;;;25.90;58.50;;;;;;5129511;27;45374;-71
2022/08/27 08:25:40;;;;;;;9.07;7.45;;;25.90;58.60;;;;;;5128502;27;45272;-70
2022/08/27 08:28:10;;;;;;;10.23;7.57;;;25.90;58.70;;;;;;5129147;27;45279;-70
2022/08/27 08:30:37;;;;;;;9.27;8.38;;;25.90;58.80;;;;;;5128772;27;45190;-70
2022/08/27 08:33:04;;;;;;;11.80;8.68;;;25.90;58.70;;;;;;5128960;27;45408;-70
2022/08/27 08:35:30;;;;;;;9.38;7.75;;;26.00;59.00;;;;;;5128558;27;46537;-70
2022/08/27 08:37:57;;;;;;;15.02;8.35;;;26.00;58.80;;;;;;5127408;27;45237;-70
2022/08/27 08:40:28;;;;;;;9.63;8.52;;;26.00;58.90;;;;;;5127831;27;45384;-70
2022/08/27 08:42:55;;;;;;;11.00;7.35;;;26.00;59.40;;;;;;5128796;27;45106;-70
2022/08/27 08:45:26;;;;;;;9.10;8.23;;;26.00;58.40;;;;;;5128158;27;46612;-71
2022/08/27 08:47:55;;;;;;;9.65;7.93;;;26.00;58.80;;;;;;5123022;27;45462;-71
2022/08/27 08:50:25;;;;;;;10.88;9.63;;;26.10;58.80;;;;;;5128448;27;45263;-71
2022/08/27 08:52:54;;;;;;;10.80;9.70;;;26.10;58.90;;;;;;5128630;27;45138;-70
2022/08/27 08:55:36;;;;;;;12.07;8.98;;;26.10;58.70;;;;;;5127910;27;46936;-70
2022/08/27 08:58:12;;;;;;;13.10;9.25;;;26.00;58.70;;;;;;5128150;27;45179;-71
2022/08/27 09:00:40;;;;;;;10.63;9.50;;;26.10;59.20;;;;;;5128431;27;45181;-71
2022/08/27 09:03:07;;;;;;;14.45;9.52;;;26.10;59.20;;;;;;5128519;27;45408;-70
2022/08/27 09:05:34;;;;;;;11.27;9.52;;;26.10;59.20;;;;;;5127827;27;46672;-70
2022/08/27 09:08:05;;;;;;;12.63;9.40;;;26.10;58.90;;;;;;5128162;27;45431;-70
2022/08/27 09:10:34;;;;;;;10.15;8.75;;;26.10;58.80;;;;;;5127990;27;45252;-69
2022/08/27 09:13:02;;;;;;;9.00;8.15;;;26.10;59.10;;;;;;5128180;27;45322;-69
2022/08/27 09:15:30;;;;;;;9.75;8.80;;;26.10;59.00;;;;;;5120794;27;48310;-70
2022/08/27 09:18:06;;;;;;;9.25;8.10;;;26.10;58.90;;;;;;5123924;27;45423;-70
2022/08/27 09:20:34;;;;;;;10.02;8.10;;;26.10;58.30;;;;;;5128047;27;45226;-71
2022/08/27 09:23:04;;;;;;;9.77;8.30;;;26.10;58.20;;;;;;5128004;27;45410;-70
2022/08/27 09:25:32;;;;;;;12.07;9.35;;;26.10;58.10;;;;;;5127662;27;45453;-70
2022/08/27 09:28:00;;;;;;;13.93;8.85;;;26.20;58.10;;;;;;5128053;27;45272;-70
2022/08/27 09:30:29;;;;;;;9.90;8.02;;;26.20;57.90;;;;;;5119306;27;45271;-70
2022/08/27 09:32:57;;;;;;;10.55;7.68;;;26.20;57.70;;;;;;5107368;27;45400;-70
2022/08/27 09:35:27;;;;;;;8.27;7.07;;;26.20;57.50;;;;;;5106854;27;46390;-71
2022/08/27 09:37:54;;;;;;;8.35;6.93;;;26.30;57.30;;;;;;5120054;27;45185;-69
2022/08/27 09:40:25;;;;;;;8.43;7.43;;;26.30;57.40;;;;;;5127994;27;45357;-69
2022/08/27 09:42:53;;;;;;;8.98;7.82;;;26.40;56.90;;;;;;5127886;27;45380;-70
2022/08/27 09:45:21;;;;;;;9.90;7.25;;;26.40;56.80;;;;;;5127409;27;45391;-70
2022/08/27 09:47:49;;;;;;;7.82;7.13;;;26.40;56.50;;;;;;5127435;27;45307;-71
2022/08/27 09:50:17;;;;;;;9.15;7.88;;;26.40;56.20;;;;;;5127642;27;45304;-70
2022/08/27 09:52:53;;;;;;;7.70;6.88;;;26.50;56.30;;;;;;5126668;27;45244;-70
2022/08/27 09:55:28;;;;;;;8.68;7.70;;;26.40;56.50;;;;;;5127210;27;45230;-70
2022/08/27 09:57:55;;;;;;;8.93;6.72;;;26.50;55.90;;;;;;5127421;27;45211;-70
2022/08/27 10:00:29;;;;;;;7.22;6.53;;;26.50;55.50;;;;;;5127638;27;45246;-70
2022/08/27 10:02:59;;;;;;;8.95;7.95;;;26.50;55.30;;;;;;5125673;27;45206;-71
2022/08/27 10:05:29;;;;;;;10.38;8.50;;;26.60;55.50;;;;;;5127253;27;45307;-71
2022/08/27 10:07:59;;;;;;;8.82;7.88;;;26.60;55.70;;;;;;5157791;27;45210;-70
2022/08/27 10:10:30;;;;;;;8.30;7.28;;;26.60;55.50;;;;;;5169074;27;45317;-70
2022/08/27 10:12:59;;;;;;;7.97;7.15;;;26.60;55.60;;;;;;5169301;27;45129;-70
2022/08/27 10:15:28;;;;;;;8.52;7.30;;;26.60;55.50;;;;;;5162558;27;47292;-71
2022/08/27 10:18:00;;;;;;;8.95;6.97;;;26.60;55.10;;;;;;5164093;27;45430;-69
2022/08/27 10:20:32;;;;;;;7.50;6.75;;;26.70;54.80;;;;;;5169026;27;45297;-70
2022/08/27 10:23:07;;;;;;;8.00;7.20;;;26.70;54.40;;;;;;5168846;27;45394;-70
2022/08/27 10:25:37;;;;;;;7.18;6.28;;;26.70;54.80;;;;;;5168724;27;45329;-70
2022/08/27 10:28:10;;;;;;;7.63;6.80;;;26.70;54.50;;;;;;5168764;27;45180;-70
2022/08/27 10:30:45;;;;;;;8.10;7.30;;;26.80;54.20;;;;;;5158957;27;45364;-71
2022/08/27 10:33:16;;;;;;;8.07;6.88;;;26.80;54.30;;;;;;5148010;27;45302;-70
2022/08/27 10:35:46;;;;;;;7.55;6.80;;;26.80;55.10;;;;;;5147162;27;47558;-70
2022/08/27 10:38:18;;;;;;;7.88;6.95;;;26.80;54.90;;;;;;5147392;27;45201;-70
2022/08/27 10:40:48;;;;;;;8.30;7.50;;;26.80;53.90;;;;;;5147964;27;44682;-70
2022/08/27 10:43:53;;;;;;;7.07;6.38;;;26.80;53.80;;;;;;5148207;27;45196;-70
2022/08/27 10:46:34;;;;;;;7.20;6.60;;;26.90;53.70;;;;;;5083224;28;47575;-70
2022/08/27 10:49:04;;;;;;;9.40;6.95;;;26.90;54.50;;;;;;5083171;28;45436;-70
2022/08/27 10:51:34;;;;;;;7.53;6.82;;;27.00;53.50;;;;;;5119103;27;45204;-70
2022/08/27 10:54:05;;;;;;;8.20;7.13;;;27.00;53.20;;;;;;5147664;27;45303;-71
2022/08/27 10:56:34;;;;;;;8.60;6.90;;;27.10;53.10;;;;;;5137453;27;46469;-70
2022/08/27 10:59:06;;;;;;;7.47;6.53;;;27.10;52.70;;;;;;5143954;27;45312;-70
2022/08/27 11:01:38;;;;;;;20.42;18.23;;;27.10;52.40;;;;;;5147720;27;45386;-69
2022/08/27 11:04:06;;;;;;;11.15;9.30;;;27.10;52.00;;;;;;5150446;27;45253;-70
2022/08/27 11:06:35;;;;;;;8.05;6.97;;;27.20;52.50;;;;;;5148754;27;45405;-71
2022/08/27 11:09:06;;;;;;;8.13;7.32;;;27.20;52.10;;;;;;5150569;27;45269;-71
2022/08/27 11:11:36;;;;;;;7.50;6.80;;;27.30;51.80;;;;;;5139469;27;45413;-70
2022/08/27 11:14:03;;;;;;;7.55;6.53;;;27.30;51.40;;;;;;5143839;27;45385;-70
2022/08/27 11:16:34;;;;;;;7.55;6.53;;;27.40;52.00;;;;;;5143691;27;45380;-71
2022/08/27 11:19:03;;;;;;;8.93;7.10;;;27.40;52.10;;;;;;5150425;27;45249;-71
2022/08/27 11:21:34;;;;;;;9.75;7.88;;;27.30;53.00;;;;;;5150472;27;45230;-70
2022/08/27 11:24:08;;;;;;;13.43;7.88;;;27.30;53.80;;;;;;5136252;27;45472;-70
2022/08/27 11:26:34;;;;;;;8.32;7.45;;;27.30;53.70;;;;;;5148699;27;46357;-70
2022/08/27 11:29:03;;;;;;;9.23;8.20;;;27.30;53.70;;;;;;5150634;27;45245;-70
2022/08/27 11:31:32;;;;;;;9.50;8.15;;;27.30;54.00;;;;;;5150317;27;45188;-70
2022/08/27 11:34:03;;;;;;;10.00;8.45;;;27.30;54.00;;;;;;5150410;27;45463;-70
2022/08/27 11:36:45;;;;;;;11.65;8.40;;;27.20;54.20;;;;;;5148219;27;45241;-70
2022/08/27 11:39:19;;;;;;;11.20;8.50;;;27.20;54.60;;;;;;5150371;27;45350;-70
2022/08/27 11:41:52;;;;;;;9.45;8.55;;;27.20;54.80;;;;;;5150268;27;45362;-71
2022/08/27 11:44:19;;;;;;;11.23;8.77;;;27.20;54.50;;;;;;5149665;27;45313;-70
2022/08/27 11:46:47;;;;;;;9.40;7.93;;;27.20;54.60;;;;;;5149385;27;46427;-70
2022/08/27 11:49:23;;;;;;;9.00;8.10;;;27.20;54.40;;;;;;5150664;27;45211;-70
2022/08/27 11:51:57;;;;;;;9.73;7.40;;;27.30;54.00;;;;;;5150174;27;45180;-70
2022/08/27 11:54:27;;;;;;;8.65;7.78;;;27.30;53.70;;;;;;5150331;27;45172;-70
2022/08/27 11:56:54;;;;;;;9.00;7.68;;;27.40;53.50;;;;;;5150132;27;46347;-70
2022/08/27 11:59:22;;;;;;;9.30;7.53;;;27.50;53.90;;;;;;5149759;27;45255;-70
2022/08/27 12:01:52;;;;;;;7.70;6.95;;;27.50;53.70;;;;;;5149806;27;45165;-70
2022/08/27 12:04:23;;;;;;;8.27;7.47;;;27.60;53.60;;;;;;5150471;27;45350;-69
2022/08/27 12:06:51;;;;;;;9.65;7.55;;;27.80;53.20;;;;;;5149183;27;45418;-70
2022/08/27 12:09:19;;;;;;;15.35;8.32;;;27.90;52.90;;;;;;5149827;27;45130;-70
2022/08/27 12:11:54;;;;;;;8.68;7.72;;;27.90;52.50;;;;;;5150291;27;45305;-70
2022/08/27 12:14:31;;;;;;;8.18;7.43;;;27.90;52.50;;;;;;5148653;27;45318;-70
2022/08/27 12:16:59;;;;;;;10.68;7.47;;;27.90;52.40;;;;;;5148659;27;45453;-70
2022/08/27 12:19:34;;;;;;;9.35;8.07;;;27.90;52.30;;;;;;5149604;27;45174;-70
2022/08/27 12:22:11;;;;;;;9.98;7.93;;;27.80;52.40;;;;;;5149882;27;45161;-70
2022/08/27 12:24:42;;;;;;;9.27;8.20;;;27.70;52.70;;;;;;5149956;27;45126;-70
2022/08/27 12:27:28;;;;;;;8.68;7.78;;;27.70;52.40;;;;;;5149147;27;45391;-70
2022/08/27 12:29:56;;;;;;;8.35;7.50;;;27.70;52.40;;;;;;5149018;27;45185;-70
2022/08/27 12:32:28;;;;;;;9.32;8.40;;;27.70;52.40;;;;;;5149566;27;45221;-70
2022/08/27 12:35:01;;;;;;;8.23;7.53;;;27.70;52.60;;;;;;5149825;27;45376;-70
2022/08/27 12:37:30;;;;;;;8.90;8.10;;;27.60;52.50;;;;;;5147142;27;47514;-70
2022/08/27 12:39:58;;;;;;;9.30;7.88;;;27.60;52.70;;;;;;5149341;27;45181;-70
2022/08/27 12:42:26;;;;;;;8.75;7.85;;;27.60;52.70;;;;;;5149297;27;45133;-71
2022/08/27 12:44:56;;;;;;;10.85;8.73;;;27.60;52.60;;;;;;5149860;27;45485;-70
2022/08/27 12:47:23;;;;;;;9.13;7.55;;;27.60;53.00;;;;;;5149117;27;46390;-70
2022/08/27 12:49:52;;;;;;;8.48;7.57;;;27.60;52.50;;;;;;5148780;27;45407;-70
2022/08/27 12:52:26;;;;;;;8.75;7.85;;;27.60;52.80;;;;;;5149489;27;45309;-70
2022/08/27 12:55:04;;;;;;;9.68;8.32;;;27.70;52.40;;;;;;5131607;27;45536;-70
2022/08/27 12:57:35;;;;;;;8.98;7.57;;;27.80;52.30;;;;;;5125633;27;45153;-69
2022/08/27 13:00:08;;;;;;;10.30;7.93;;;27.90;52.20;;;;;;5146293;27;45307;-70